createdAt,value
2023-03-24T00:03:03.733Z,66.26
2023-03-24T00:08:07.355Z,67.05
2023-03-24T00:13:12.232Z,66.31
2023-03-24T00:18:15.737Z,65.29
2023-03-24T00:23:19.581Z,65.81
2023-03-24T00:28:24.457Z,65.63
2023-03-24T00:33:27.876Z,66.76
2023-03-24T00:38:31.439Z,66.45
2023-03-24T00:43:36.926Z,66.24
2023-03-24T00:48:42.216Z,65.93
2023-03-24T00:53:45.651Z,66.81
2023-03-24T00:58:50.533Z,65.78
2023-03-24T01:03:54.047Z,65.76
2023-03-24T01:08:57.530Z,65.45
2023-03-24T01:14:02.565Z,65.63
2023-03-24T01:19:06.878Z,66.33
2023-03-24T01:24:10.439Z,67.43
2023-03-24T01:29:15.311Z,67.68
2023-03-24T01:34:18.721Z,65.97
2023-03-24T01:39:22.713Z,67.73
2023-03-24T01:44:31.235Z,66.83
2023-03-24T01:49:39.196Z,65.77
2023-03-24T01:54:45.930Z,67.19
2023-03-24T01:59:54.785Z,65.88
2023-03-24T02:05:01.219Z,67.44
2023-03-24T02:10:07.610Z,66.45
2023-03-24T02:15:14.585Z,67.64
2023-03-24T02:20:32.244Z,65.90
2023-03-24T02:26:13.837Z,66.19
2023-03-24T02:31:29.256Z,66.42
2023-03-24T02:37:09.897Z,67.06
2023-03-24T02:42:23.444Z,67.48
2023-03-24T02:47:29.590Z,66.74
2023-03-24T02:52:36.619Z,66.88
2023-03-24T02:57:44.560Z,67.65
2023-03-24T03:02:51.908Z,65.75
2023-03-24T03:07:56.206Z,67.28
2023-03-24T03:13:03.428Z,66.57
2023-03-24T03:18:11.135Z,66.95
2023-03-24T03:23:15.520Z,66.42
2023-03-24T03:28:22.428Z,67.06
2023-03-24T03:33:28.710Z,67.78
2023-03-24T03:38:36.826Z,67.46
2023-03-24T03:43:41.840Z,68.54
2023-03-24T03:48:45.704Z,67.09
2023-03-24T03:53:51.962Z,68.26
2023-03-24T03:58:56.853Z,68.27
2023-03-24T04:04:28.519Z,66.73
2023-03-24T04:09:38.807Z,67.16
2023-03-24T04:15:05.154Z,66.84
2023-03-24T04:20:12.645Z,68.02
2023-03-24T04:25:20.012Z,67.17
2023-03-24T04:30:28.223Z,68.66
2023-03-24T04:35:35.210Z,67.49
2023-03-24T04:40:42.288Z,68.10
2023-03-24T04:45:50.089Z,68.86
2023-03-24T04:50:57.031Z,67.96
2023-03-24T04:56:06.785Z,69.28
2023-03-24T05:01:11.715Z,69.10
2023-03-24T05:06:15.323Z,67.53
2023-03-24T05:11:18.865Z,68.06
2023-03-24T05:16:23.850Z,67.26
2023-03-24T05:21:27.532Z,67.98
2023-03-24T05:26:33.144Z,67.32
2023-03-24T05:31:38.324Z,69.02
2023-03-24T05:36:41.798Z,67.38
2023-03-24T05:41:45.317Z,68.74
2023-03-24T05:46:50.225Z,69.06
2023-03-24T05:51:53.660Z,67.87
2023-03-24T05:56:57.284Z,67.95
2023-03-24T06:02:02.582Z,67.83
2023-03-24T06:07:06.344Z,67.27
2023-03-24T06:12:10.514Z,69.09
2023-03-24T06:17:15.569Z,68.05
2023-03-24T06:22:19.477Z,67.62
2023-03-24T06:27:25.860Z,68.31
2023-03-24T06:32:30.775Z,68.37
2023-03-24T06:37:34.449Z,67.09
2023-03-24T06:42:38.112Z,67.59
2023-03-24T06:47:42.999Z,67.21
2023-03-24T06:52:46.456Z,67.29
2023-03-24T06:57:49.977Z,67.80
2023-03-24T07:02:54.768Z,69.38
2023-03-24T07:13:04.807Z,67.91
2023-03-24T07:18:09.779Z,69.11
2023-03-24T07:23:13.343Z,67.80
2023-03-24T07:28:16.832Z,67.75
2023-03-24T07:33:22.100Z,68.70
2023-03-24T07:38:25.717Z,69.12
2023-03-24T07:43:29.224Z,68.73
2023-03-24T07:48:34.138Z,68.59
2023-03-24T07:53:37.950Z,67.24
2023-03-24T07:58:41.521Z,66.77
2023-03-24T08:03:49.406Z,66.93
2023-03-24T08:08:53.121Z,68.49
2023-03-24T08:13:56.721Z,68.03
2023-03-24T08:19:01.560Z,68.74
2023-03-24T08:24:05.219Z,66.73
2023-03-24T08:29:08.683Z,67.33
2023-03-24T08:34:13.541Z,68.80
2023-03-24T08:39:17.941Z,68.62
2023-03-24T08:44:21.467Z,67.70
2023-03-24T08:49:26.322Z,68.21
2023-03-24T08:54:30.058Z,66.89
2023-03-24T08:59:33.518Z,66.95
2023-03-24T09:04:38.717Z,67.70
2023-03-24T09:09:42.191Z,66.81
2023-03-24T09:14:49.702Z,68.81
2023-03-24T09:19:55.416Z,67.04
2023-03-24T09:24:58.877Z,67.55
2023-03-24T09:30:02.505Z,67.56
2023-03-24T09:35:08.922Z,68.00
2023-03-24T09:40:19.904Z,67.59
2023-03-24T09:45:24.053Z,68.66
2023-03-24T09:50:31.020Z,67.85
2023-03-24T09:55:34.920Z,68.22
2023-03-24T10:00:38.730Z,68.20
2023-03-24T10:05:46.910Z,67.21
2023-03-24T10:10:58.949Z,67.22
2023-03-24T10:16:08.204Z,67.83
2023-03-24T10:21:18.012Z,68.17
2023-03-24T10:26:33.170Z,67.05
2023-03-24T10:31:38.968Z,67.16
2023-03-24T10:36:45.058Z,67.17
2023-03-24T10:41:49.797Z,68.33
2023-03-24T10:46:56.419Z,68.78
2023-03-24T10:52:04.836Z,67.71
2023-03-24T10:57:17.138Z,67.60
2023-03-24T11:02:22.608Z,68.63
2023-03-24T11:07:31.543Z,67.65
2023-03-24T11:12:36.937Z,68.28
2023-03-24T11:17:40.544Z,67.99
2023-03-24T11:23:00.692Z,68.71
2023-03-24T11:28:09.052Z,68.06
2023-03-24T11:33:19.729Z,67.10
2023-03-24T11:38:32.323Z,68.24
2023-03-24T11:43:35.846Z,66.69
2023-03-24T11:48:45.918Z,67.45
2023-03-24T11:53:53.013Z,68.18
2023-03-24T11:59:00.116Z,67.89
2023-03-24T12:04:28.356Z,68.56
2023-03-24T12:09:41.034Z,68.44
2023-03-24T12:14:53.070Z,66.89
2023-03-24T12:20:18.332Z,67.09
2023-03-24T12:25:41.318Z,68.10
2023-03-24T12:30:48.806Z,68.38
2023-03-24T12:35:57.826Z,68.26
2023-03-24T12:41:18.296Z,67.07
2023-03-24T12:46:46.708Z,68.32
2023-03-24T12:51:55.090Z,66.85
2023-03-24T12:57:02.267Z,67.33
2023-03-24T13:02:13.930Z,68.03
2023-03-24T13:07:19.699Z,67.10
2023-03-24T13:12:27.569Z,67.47
2023-03-24T13:17:34.408Z,66.75
2023-03-24T13:22:38.996Z,67.70
2023-03-24T13:27:45.231Z,68.19
2023-03-24T13:32:50.841Z,68.10
2023-03-24T13:37:55.809Z,67.93
2023-03-24T13:43:01.706Z,66.68
2023-03-24T13:48:15.802Z,66.35
2023-03-24T13:53:19.650Z,67.26
2023-03-24T13:58:26.485Z,66.96
2023-03-24T14:03:34.153Z,67.82
2023-03-24T14:08:55.930Z,68.15
2023-03-24T14:14:08.967Z,66.68
2023-03-24T14:19:27.235Z,66.59
2023-03-24T14:24:33.138Z,66.35
2023-03-24T14:29:43.692Z,67.98
2023-03-24T14:34:58.092Z,66.64
2023-03-24T14:40:01.605Z,65.54
2023-03-24T14:45:07.670Z,66.49
2023-03-24T14:50:21.415Z,66.34
2023-03-24T14:55:25.025Z,66.66
2023-03-24T15:00:34.722Z,66.67
2023-03-24T15:05:39.122Z,66.51
2023-03-24T15:10:46.893Z,65.79
2023-03-24T15:15:52.097Z,65.46
2023-03-24T15:20:55.750Z,66.59
2023-03-24T15:25:59.209Z,65.84
2023-03-24T15:31:04.101Z,66.25
2023-03-24T15:36:15.633Z,65.67
2023-03-24T15:41:20.944Z,66.56
2023-03-24T15:46:28.996Z,66.80
2023-03-24T15:51:49.102Z,65.61
2023-03-24T15:57:16.760Z,67.27
2023-03-24T16:02:31.642Z,67.10
2023-03-24T16:07:37.858Z,65.81
2023-03-24T16:12:41.338Z,66.84
2023-03-24T16:17:47.524Z,65.83
2023-03-24T16:22:51.066Z,65.61
2023-03-24T16:27:54.576Z,66.50
2023-03-24T16:32:59.528Z,65.51
2023-03-24T16:38:03.035Z,66.84
2023-03-24T16:43:07.002Z,65.71
2023-03-24T16:48:12.845Z,64.96
2023-03-24T16:53:16.344Z,66.28
2023-03-24T16:58:19.937Z,65.09
2023-03-24T17:03:25.277Z,66.07
2023-03-24T17:08:28.852Z,64.66
2023-03-24T17:13:32.321Z,65.78
2023-03-24T17:18:39.737Z,64.76
2023-03-24T17:23:44.408Z,65.14
2023-03-24T17:28:47.847Z,64.70
2023-03-24T17:33:52.750Z,64.84
2023-03-24T17:38:57.933Z,66.25
2023-03-24T17:44:01.437Z,64.68
2023-03-24T17:49:06.533Z,64.75
2023-03-24T17:54:11.932Z,65.63
2023-03-24T17:59:15.743Z,65.06
2023-03-24T18:04:20.842Z,64.46
2023-03-24T18:09:24.292Z,65.54
2023-03-24T18:14:27.951Z,64.28
2023-03-24T18:19:32.850Z,64.11
2023-03-24T18:24:36.285Z,65.12
2023-03-24T18:29:40.140Z,65.22
2023-03-24T18:34:45.049Z,65.27
2023-03-24T18:39:48.470Z,63.92
2023-03-24T18:44:51.970Z,63.94
2023-03-24T18:49:56.733Z,64.10
2023-03-24T18:55:02.585Z,64.14
2023-03-24T19:00:09.744Z,66.03
2023-03-24T19:05:15.486Z,65.37
2023-03-24T19:10:19.124Z,65.18
2023-03-24T19:15:24.923Z,65.36
2023-03-24T19:20:29.999Z,64.89
2023-03-24T19:25:33.615Z,64.60
2023-03-24T19:30:39.394Z,65.80
2023-03-24T19:35:44.246Z,63.69
2023-03-24T19:40:47.652Z,64.62
2023-03-24T19:45:51.515Z,64.06
2023-03-24T19:50:56.953Z,64.13
2023-03-24T19:56:01.413Z,65.86
2023-03-24T20:01:05.280Z,65.03
2023-03-24T20:06:11.279Z,65.65
2023-03-24T20:11:14.745Z,64.45
2023-03-24T20:16:18.330Z,65.72
2023-03-24T20:21:23.995Z,65.45
2023-03-24T20:26:28.832Z,65.68
2023-03-24T20:31:32.417Z,65.38
2023-03-24T20:36:38.552Z,65.57
2023-03-24T20:41:42.075Z,65.68
2023-03-24T20:46:46.059Z,64.98
2023-03-24T20:51:51.538Z,65.63
2023-03-24T20:56:55.169Z,64.99
2023-03-24T21:01:58.832Z,66.31
2023-03-24T21:07:03.815Z,64.37
2023-03-24T21:12:07.812Z,65.64
2023-03-24T21:17:11.320Z,64.08
2023-03-24T21:22:16.387Z,65.26
2023-03-24T21:27:21.505Z,64.85
2023-03-24T21:32:25.026Z,64.36
2023-03-24T21:37:30.482Z,64.84
2023-03-24T21:42:34.965Z,64.15
2023-03-24T21:47:38.908Z,64.97
2023-03-24T21:52:47.336Z,65.18
2023-03-24T21:57:52.067Z,63.95
2023-03-24T22:02:58.439Z,66.21
2023-03-24T22:08:06.662Z,65.54
2023-03-24T22:13:11.026Z,65.52
2023-03-24T22:18:14.603Z,65.05
2023-03-24T22:23:20.066Z,65.29
2023-03-24T22:28:23.525Z,65.17
2023-03-24T22:33:27.017Z,65.07
2023-03-24T22:38:32.407Z,64.92
2023-03-24T22:43:36.665Z,64.92
2023-03-24T22:48:40.555Z,64.03
2023-03-24T22:53:45.561Z,65.02
2023-03-24T22:58:49.058Z,64.44
2023-03-24T23:03:52.540Z,64.61
2023-03-24T23:08:57.417Z,64.81
2023-03-24T23:14:04.959Z,63.58
2023-03-24T23:19:09.655Z,64.16
2023-03-24T23:24:14.518Z,64.24
2023-03-24T23:29:18.082Z,63.74
2023-03-24T23:34:21.550Z,64.12
2023-03-24T23:39:26.505Z,62.91
2023-03-24T23:44:30.054Z,63.29
2023-03-24T23:49:33.923Z,64.01
2023-03-24T23:54:38.700Z,64.34
2023-03-24T23:59:42.205Z,64.40
